Terminal Aerodrome Forecast
Issued by NWS Sioux Falls, SD

Home | Current Version | Previous Version | Graphics & Text | Print | Product List | Glossary On
Versions: 1 2 3 4 5 6 7 8 9 10 11 12 13 14 15 16 17 18 19 20 21 22 23 24 25 26
507
FTUS43 KFSD 212330
TAFFSD
TAF
KFSD 212330Z 2200/2224 15005KT P6SM FEW250
     FM221100 12004KT P6SM OVC110
     FM221300 12005KT P6SM OVC050
     FM221400 11005KT P6SM -SN OVC030
     FM221600 11007KT 1 1/2SM -SN OVC015=

USA.gov is the U.S. government's official web portal to all federal, state and local government web resources and services.